MPSM

Scarlett Martínez International Airport

Río Hato, Panama
TAF MPSM 252220Z 2600/2706 02008KT 9999 SCT020 SCT080 BECMG 2603/2606 33006KT SCT017
Issued Valid From Valid To
Apr-25 @ 22:20 UTC
(6 hours ago)
Apr-26 @ 00:00 UTC
(4 hours ago)
Apr-27 @ 06:00 UTC
(-1 days ago)
Expired Click to View Apr-26 @ 00:00 to Apr-26 @ 03:00
TAF MPSM 252220Z 2600/2706 02008KT 9999 SCT020 SCT080
Wind Visibility Clouds
20° at 8 knots 10,000+ meters
  • Scattered at 2,000' AGL
  • Scattered at 8,000' AGL
Becoming Apr-26 @ 03:00 to Apr-27 @ 06:00
BECMG 2603/2606 33006KT SCT017
Wind Visibility Clouds
330° at 6 knots 10,000+ meters
  • Scattered at 1,700' AGL
TAF MPSM 252220Z 2600/2706 02008KT 9999 SCT020 SCT080 BECMG 2603/2606 33006KT SCT017
Issued Apr-25 @ 22:20 UTC
(6 hours ago)
Valid From Apr-26 @ 00:00 UTC
(4 hours ago)
Valid To Apr-27 @ 06:00 UTC
(-1 days ago)
Apr-26 @ 00:00 - Apr-26 @ 03:00
Wind Visibility
20° at 8 knots 10,000+ meters
Clouds
  • Scattered at 2,000' AGL
  • Scattered at 8,000' AGL
Becoming Apr-26 @ 03:00 - Apr-27 @ 06:00
Wind Visibility
330° at 6 knots 10,000+ meters
Clouds
  • Scattered at 1,700' AGL